sensor_id;sensor_type;location;lat;lon;timestamp;P1;durP1;ratioP1;P2;durP2;ratioP2
58864;SDS011;45702;52.982;6.658;2022-08-03T00:01:42;12.18;;;3.63;;
58864;SDS011;45702;52.982;6.658;2022-08-03T00:04:09;14.40;;;3.83;;
58864;SDS011;45702;52.982;6.658;2022-08-03T00:06:35;13.55;;;3.80;;
58864;SDS011;45702;52.982;6.658;2022-08-03T00:09:02;13.38;;;3.20;;
58864;SDS011;45702;52.982;6.658;2022-08-03T00:11:28;13.70;;;3.35;;
58864;SDS011;45702;52.982;6.658;2022-08-03T00:13:54;16.00;;;3.30;;
58864;SDS011;45702;52.982;6.658;2022-08-03T00:16:20;13.18;;;3.35;;
58864;SDS011;45702;52.982;6.658;2022-08-03T00:18:48;11.52;;;3.60;;
58864;SDS011;45702;52.982;6.658;2022-08-03T00:21:14;13.73;;;3.05;;
58864;SDS011;45702;52.982;6.658;2022-08-03T00:23:40;9.90;;;2.70;;
58864;SDS011;45702;52.982;6.658;2022-08-03T00:26:06;11.88;;;3.20;;
58864;SDS011;45702;52.982;6.658;2022-08-03T00:28:32;8.70;;;2.80;;
58864;SDS011;45702;52.982;6.658;2022-08-03T00:30:58;13.68;;;3.13;;
58864;SDS011;45702;52.982;6.658;2022-08-03T00:33:24;16.17;;;3.47;;
58864;SDS011;45702;52.982;6.658;2022-08-03T00:35:50;10.65;;;3.10;;
58864;SDS011;45702;52.982;6.658;2022-08-03T00:38:17;15.18;;;3.10;;
58864;SDS011;45702;52.982;6.658;2022-08-03T00:40:43;13.52;;;2.70;;
58864;SDS011;45702;52.982;6.658;2022-08-03T00:43:09;12.23;;;2.88;;
58864;SDS011;45702;52.982;6.658;2022-08-03T00:45:36;11.15;;;2.60;;
58864;SDS011;45702;52.982;6.658;2022-08-03T00:48:03;8.88;;;2.38;;
58864;SDS011;45702;52.982;6.658;2022-08-03T00:50:31;16.35;;;3.35;;
58864;SDS011;45702;52.982;6.658;2022-08-03T00:52:59;9.57;;;2.45;;
58864;SDS011;45702;52.982;6.658;2022-08-03T00:55:25;9.70;;;2.30;;
58864;SDS011;45702;52.982;6.658;2022-08-03T00:57:52;11.60;;;2.58;;
58864;SDS011;45702;52.982;6.658;2022-08-03T01:00:19;16.40;;;2.92;;
58864;SDS011;45702;52.982;6.658;2022-08-03T01:02:46;14.10;;;2.43;;
58864;SDS011;45702;52.982;6.658;2022-08-03T01:05:12;12.00;;;2.17;;
58864;SDS011;45702;52.982;6.658;2022-08-03T01:15:52;12.75;;;2.50;;
58864;SDS011;45702;52.982;6.658;2022-08-03T01:18:29;10.77;;;2.25;;
58864;SDS011;45702;52.982;6.658;2022-08-03T01:20:57;9.48;;;2.65;;
58864;SDS011;45702;52.982;6.658;2022-08-03T01:23:36;6.15;;;2.15;;
58864;SDS011;45702;52.982;6.658;2022-08-03T01:26:08;10.73;;;2.58;;
58864;SDS011;45702;52.982;6.658;2022-08-03T01:31:03;12.52;;;2.85;;
58864;SDS011;45702;52.982;6.658;2022-08-03T01:33:34;6.63;;;2.20;;
58864;SDS011;45702;52.982;6.658;2022-08-03T01:36:02;11.57;;;2.95;;
58864;SDS011;45702;52.982;6.658;2022-08-03T01:38:31;11.10;;;2.90;;
58864;SDS011;45702;52.982;6.658;2022-08-03T01:41:00;10.10;;;3.03;;
58864;SDS011;45702;52.982;6.658;2022-08-03T01:43:28;9.80;;;2.45;;
58864;SDS011;45702;52.982;6.658;2022-08-03T01:45:55;10.43;;;2.95;;
58864;SDS011;45702;52.982;6.658;2022-08-03T01:48:22;9.37;;;2.80;;
58864;SDS011;45702;52.982;6.658;2022-08-03T01:50:49;11.65;;;3.15;;
58864;SDS011;45702;52.982;6.658;2022-08-03T01:53:16;12.15;;;2.78;;
58864;SDS011;45702;52.982;6.658;2022-08-03T01:55:45;13.10;;;3.13;;
58864;SDS011;45702;52.982;6.658;2022-08-03T01:58:12;13.30;;;2.95;;
58864;SDS011;45702;52.982;6.658;2022-08-03T02:00:39;12.23;;;2.85;;
58864;SDS011;45702;52.982;6.658;2022-08-03T02:03:06;15.98;;;3.58;;
58864;SDS011;45702;52.982;6.658;2022-08-03T02:05:33;9.15;;;2.92;;
58864;SDS011;45702;52.982;6.658;2022-08-03T02:08:00;13.38;;;3.50;;
58864;SDS011;45702;52.982;6.658;2022-08-03T02:10:28;9.98;;;3.00;;
58864;SDS011;45702;52.982;6.658;2022-08-03T02:12:56;11.57;;;3.65;;
58864;SDS011;45702;52.982;6.658;2022-08-03T02:15:24;14.30;;;3.20;;
58864;SDS011;45702;52.982;6.658;2022-08-03T02:17:51;19.05;;;3.20;;
58864;SDS011;45702;52.982;6.658;2022-08-03T02:20:18;16.25;;;3.40;;
58864;SDS011;45702;52.982;6.658;2022-08-03T02:22:44;14.88;;;3.60;;
58864;SDS011;45702;52.982;6.658;2022-08-03T02:25:11;15.73;;;3.95;;
58864;SDS011;45702;52.982;6.658;2022-08-03T02:27:39;14.10;;;3.50;;
58864;SDS011;45702;52.982;6.658;2022-08-03T02:30:08;13.48;;;3.60;;
58864;SDS011;45702;52.982;6.658;2022-08-03T02:32:35;13.18;;;3.83;;
58864;SDS011;45702;52.982;6.658;2022-08-03T02:35:02;13.80;;;4.10;;
58864;SDS011;45702;52.982;6.658;2022-08-03T02:37:30;12.23;;;3.65;;
58864;SDS011;45702;52.982;6.658;2022-08-03T02:39:59;10.65;;;3.60;;
58864;SDS011;45702;52.982;6.658;2022-08-03T02:42:26;16.10;;;4.13;;
58864;SDS011;45702;52.982;6.658;2022-08-03T02:44:54;15.90;;;3.80;;
58864;SDS011;45702;52.982;6.658;2022-08-03T02:47:21;12.95;;;4.00;;
58864;SDS011;45702;52.982;6.658;2022-08-03T02:49:47;11.80;;;3.75;;
58864;SDS011;45702;52.982;6.658;2022-08-03T02:52:14;15.77;;;3.50;;
58864;SDS011;45702;52.982;6.658;2022-08-03T02:54:42;11.55;;;3.80;;
58864;SDS011;45702;52.982;6.658;2022-08-03T02:57:09;12.43;;;3.97;;
58864;SDS011;45702;52.982;6.658;2022-08-03T02:59:36;13.27;;;4.13;;
58864;SDS011;45702;52.982;6.658;2022-08-03T03:02:02;14.60;;;4.10;;
58864;SDS011;45702;52.982;6.658;2022-08-03T03:04:28;9.95;;;3.95;;
58864;SDS011;45702;52.982;6.658;2022-08-03T03:06:55;13.98;;;4.35;;
58864;SDS011;45702;52.982;6.658;2022-08-03T03:09:22;12.85;;;4.50;;
58864;SDS011;45702;52.982;6.658;2022-08-03T03:11:48;13.90;;;3.97;;
58864;SDS011;45702;52.982;6.658;2022-08-03T03:14:15;15.52;;;4.28;;
58864;SDS011;45702;52.982;6.658;2022-08-03T03:16:42;8.57;;;4.18;;
58864;SDS011;45702;52.982;6.658;2022-08-03T03:19:10;22.30;;;4.55;;
58864;SDS011;45702;52.982;6.658;2022-08-03T03:21:36;14.02;;;4.30;;
58864;SDS011;45702;52.982;6.658;2022-08-03T03:24:03;12.63;;;4.38;;
58864;SDS011;45702;52.982;6.658;2022-08-03T03:26:30;13.95;;;4.40;;
58864;SDS011;45702;52.982;6.658;2022-08-03T03:28:56;11.73;;;4.15;;
58864;SDS011;45702;52.982;6.658;2022-08-03T03:31:22;11.90;;;4.28;;
58864;SDS011;45702;52.982;6.658;2022-08-03T03:33:48;12.85;;;4.30;;
58864;SDS011;45702;52.982;6.658;2022-08-03T03:36:15;14.45;;;4.63;;
58864;SDS011;45702;52.982;6.658;2022-08-03T03:38:42;14.75;;;4.90;;
58864;SDS011;45702;52.982;6.658;2022-08-03T03:41:08;15.25;;;4.70;;
58864;SDS011;45702;52.982;6.658;2022-08-03T03:43:34;14.00;;;5.05;;
58864;SDS011;45702;52.982;6.658;2022-08-03T03:46:00;13.25;;;5.18;;
58864;SDS011;45702;52.982;6.658;2022-08-03T03:48:27;13.95;;;4.90;;
58864;SDS011;45702;52.982;6.658;2022-08-03T03:50:53;20.98;;;5.30;;
58864;SDS011;45702;52.982;6.658;2022-08-03T03:53:21;14.32;;;5.10;;
58864;SDS011;45702;52.982;6.658;2022-08-03T03:55:48;14.95;;;5.43;;
58864;SDS011;45702;52.982;6.658;2022-08-03T03:58:14;17.48;;;4.80;;
58864;SDS011;45702;52.982;6.658;2022-08-03T04:00:40;16.55;;;5.55;;
58864;SDS011;45702;52.982;6.658;2022-08-03T04:03:09;12.05;;;5.18;;
58864;SDS011;45702;52.982;6.658;2022-08-03T04:05:35;14.82;;;5.50;;
58864;SDS011;45702;52.982;6.658;2022-08-03T04:08:20;13.65;;;5.05;;
58864;SDS011;45702;52.982;6.658;2022-08-03T04:13:51;16.67;;;4.75;;
58864;SDS011;45702;52.982;6.658;2022-08-03T04:16:19;17.00;;;4.30;;
58864;SDS011;45702;52.982;6.658;2022-08-03T04:21:12;16.15;;;4.95;;
58864;SDS011;45702;52.982;6.658;2022-08-03T04:23:40;16.02;;;4.38;;
58864;SDS011;45702;52.982;6.658;2022-08-03T04:26:08;12.77;;;4.60;;
58864;SDS011;45702;52.982;6.658;2022-08-03T04:28:36;16.98;;;4.85;;
58864;SDS011;45702;52.982;6.658;2022-08-03T04:31:03;15.02;;;4.80;;
58864;SDS011;45702;52.982;6.658;2022-08-03T04:33:32;18.67;;;5.20;;
58864;SDS011;45702;52.982;6.658;2022-08-03T04:35:59;20.00;;;4.60;;
58864;SDS011;45702;52.982;6.658;2022-08-03T04:38:25;16.95;;;4.55;;
58864;SDS011;45702;52.982;6.658;2022-08-03T04:40:52;16.55;;;4.88;;
58864;SDS011;45702;52.982;6.658;2022-08-03T04:43:19;12.85;;;4.75;;
58864;SDS011;45702;52.982;6.658;2022-08-03T04:45:46;17.17;;;4.43;;
58864;SDS011;45702;52.982;6.658;2022-08-03T04:48:13;15.52;;;4.20;;
58864;SDS011;45702;52.982;6.658;2022-08-03T04:50:39;15.60;;;4.57;;
58864;SDS011;45702;52.982;6.658;2022-08-03T04:53:05;15.57;;;4.18;;
58864;SDS011;45702;52.982;6.658;2022-08-03T04:55:32;15.57;;;4.60;;
58864;SDS011;45702;52.982;6.658;2022-08-03T04:57:59;17.42;;;4.32;;
58864;SDS011;45702;52.982;6.658;2022-08-03T05:00:25;16.13;;;4.40;;
58864;SDS011;45702;52.982;6.658;2022-08-03T05:02:51;18.40;;;4.32;;
58864;SDS011;45702;52.982;6.658;2022-08-03T05:05:18;10.07;;;4.15;;
58864;SDS011;45702;52.982;6.658;2022-08-03T05:07:44;20.20;;;4.53;;
58864;SDS011;45702;52.982;6.658;2022-08-03T05:10:10;17.15;;;4.40;;
58864;SDS011;45702;52.982;6.658;2022-08-03T05:12:37;20.63;;;4.95;;
58864;SDS011;45702;52.982;6.658;2022-08-03T05:15:03;15.88;;;4.20;;
58864;SDS011;45702;52.982;6.658;2022-08-03T05:17:29;10.80;;;4.43;;
58864;SDS011;45702;52.982;6.658;2022-08-03T05:19:55;15.40;;;4.88;;
58864;SDS011;45702;52.982;6.658;2022-08-03T05:22:22;20.88;;;4.75;;
58864;SDS011;45702;52.982;6.658;2022-08-03T05:24:48;16.05;;;4.43;;
58864;SDS011;45702;52.982;6.658;2022-08-03T05:27:14;15.40;;;4.80;;
58864;SDS011;45702;52.982;6.658;2022-08-03T05:29:47;13.82;;;4.28;;
58864;SDS011;45702;52.982;6.658;2022-08-03T05:32:13;21.48;;;5.15;;
58864;SDS011;45702;52.982;6.658;2022-08-03T05:34:40;13.82;;;5.05;;
58864;SDS011;45702;52.982;6.658;2022-08-03T05:37:06;15.55;;;4.10;;
58864;SDS011;45702;52.982;6.658;2022-08-03T05:39:32;18.02;;;4.57;;
58864;SDS011;45702;52.982;6.658;2022-08-03T05:41:58;17.45;;;4.72;;
58864;SDS011;45702;52.982;6.658;2022-08-03T05:44:24;14.93;;;4.57;;
58864;SDS011;45702;52.982;6.658;2022-08-03T05:46:51;16.02;;;5.00;;
58864;SDS011;45702;52.982;6.658;2022-08-03T05:49:18;12.05;;;4.15;;
58864;SDS011;45702;52.982;6.658;2022-08-03T05:51:44;14.77;;;4.47;;
58864;SDS011;45702;52.982;6.658;2022-08-03T05:54:10;10.93;;;4.45;;
58864;SDS011;45702;52.982;6.658;2022-08-03T05:56:36;16.55;;;5.05;;
58864;SDS011;45702;52.982;6.658;2022-08-03T06:01:30;24.05;;;5.50;;
58864;SDS011;45702;52.982;6.658;2022-08-03T06:03:57;18.40;;;4.72;;
58864;SDS011;45702;52.982;6.658;2022-08-03T06:06:23;23.58;;;4.80;;
58864;SDS011;45702;52.982;6.658;2022-08-03T06:08:49;18.17;;;5.18;;
58864;SDS011;45702;52.982;6.658;2022-08-03T06:11:16;19.85;;;4.97;;
58864;SDS011;45702;52.982;6.658;2022-08-03T06:13:42;20.85;;;5.65;;
58864;SDS011;45702;52.982;6.658;2022-08-03T06:16:08;16.67;;;4.97;;
58864;SDS011;45702;52.982;6.658;2022-08-03T06:18:35;16.90;;;4.97;;
58864;SDS011;45702;52.982;6.658;2022-08-03T06:21:02;19.15;;;4.88;;
58864;SDS011;45702;52.982;6.658;2022-08-03T06:23:28;21.50;;;4.53;;
58864;SDS011;45702;52.982;6.658;2022-08-03T06:25:54;22.98;;;5.00;;
58864;SDS011;45702;52.982;6.658;2022-08-03T06:28:20;21.90;;;4.72;;
58864;SDS011;45702;52.982;6.658;2022-08-03T06:30:47;17.45;;;4.38;;
58864;SDS011;45702;52.982;6.658;2022-08-03T06:33:16;21.38;;;5.20;;
58864;SDS011;45702;52.982;6.658;2022-08-03T06:35:42;15.50;;;4.63;;
58864;SDS011;45702;52.982;6.658;2022-08-03T06:38:08;15.95;;;4.60;;
58864;SDS011;45702;52.982;6.658;2022-08-03T06:40:34;19.58;;;4.70;;
58864;SDS011;45702;52.982;6.658;2022-08-03T06:43:04;21.02;;;4.90;;
58864;SDS011;45702;52.982;6.658;2022-08-03T06:45:31;19.85;;;4.70;;
58864;SDS011;45702;52.982;6.658;2022-08-03T06:50:26;18.17;;;4.53;;
58864;SDS011;45702;52.982;6.658;2022-08-03T06:52:52;20.08;;;5.10;;
58864;SDS011;45702;52.982;6.658;2022-08-03T06:55:18;19.73;;;4.50;;
58864;SDS011;45702;52.982;6.658;2022-08-03T06:57:44;16.80;;;4.95;;
58864;SDS011;45702;52.982;6.658;2022-08-03T07:00:10;21.10;;;4.82;;
58864;SDS011;45702;52.982;6.658;2022-08-03T07:02:37;18.67;;;5.25;;
58864;SDS011;45702;52.982;6.658;2022-08-03T07:05:07;16.42;;;5.25;;
58864;SDS011;45702;52.982;6.658;2022-08-03T07:07:33;17.67;;;4.78;;
58864;SDS011;45702;52.982;6.658;2022-08-03T07:09:59;17.33;;;4.95;;
58864;SDS011;45702;52.982;6.658;2022-08-03T07:12:26;21.67;;;4.82;;
58864;SDS011;45702;52.982;6.658;2022-08-03T07:14:52;15.98;;;4.90;;
58864;SDS011;45702;52.982;6.658;2022-08-03T07:17:19;18.25;;;4.55;;
58864;SDS011;45702;52.982;6.658;2022-08-03T07:19:45;19.05;;;5.63;;
58864;SDS011;45702;52.982;6.658;2022-08-03T07:22:11;19.35;;;5.07;;
58864;SDS011;45702;52.982;6.658;2022-08-03T07:24:37;25.50;;;4.50;;
58864;SDS011;45702;52.982;6.658;2022-08-03T07:27:03;20.13;;;5.63;;
58864;SDS011;45702;52.982;6.658;2022-08-03T07:29:29;24.08;;;5.13;;
58864;SDS011;45702;52.982;6.658;2022-08-03T07:31:55;17.60;;;5.28;;
58864;SDS011;45702;52.982;6.658;2022-08-03T07:34:21;17.27;;;4.88;;
58864;SDS011;45702;52.982;6.658;2022-08-03T07:36:47;15.65;;;4.65;;
58864;SDS011;45702;52.982;6.658;2022-08-03T07:39:13;20.15;;;5.03;;
58864;SDS011;45702;52.982;6.658;2022-08-03T07:41:39;16.52;;;4.68;;
58864;SDS011;45702;52.982;6.658;2022-08-03T07:44:05;21.92;;;5.25;;
58864;SDS011;45702;52.982;6.658;2022-08-03T07:46:31;24.92;;;4.88;;
58864;SDS011;45702;52.982;6.658;2022-08-03T07:48:57;19.80;;;5.32;;
58864;SDS011;45702;52.982;6.658;2022-08-03T07:51:23;26.30;;;5.35;;
58864;SDS011;45702;52.982;6.658;2022-08-03T07:53:49;15.60;;;4.45;;
58864;SDS011;45702;52.982;6.658;2022-08-03T07:56:15;20.30;;;4.60;;
58864;SDS011;45702;52.982;6.658;2022-08-03T07:58:41;14.45;;;4.57;;
58864;SDS011;45702;52.982;6.658;2022-08-03T08:01:07;21.23;;;4.68;;
58864;SDS011;45702;52.982;6.658;2022-08-03T08:03:34;18.77;;;5.18;;
58864;SDS011;45702;52.982;6.658;2022-08-03T08:06:00;20.92;;;4.63;;
58864;SDS011;45702;52.982;6.658;2022-08-03T08:08:26;15.52;;;4.03;;
58864;SDS011;45702;52.982;6.658;2022-08-03T08:10:52;14.55;;;4.60;;
58864;SDS011;45702;52.982;6.658;2022-08-03T08:13:18;18.90;;;4.15;;
58864;SDS011;45702;52.982;6.658;2022-08-03T08:15:44;15.10;;;4.07;;
58864;SDS011;45702;52.982;6.658;2022-08-03T08:18:10;20.20;;;4.47;;
58864;SDS011;45702;52.982;6.658;2022-08-03T08:20:36;18.30;;;4.68;;
58864;SDS011;45702;52.982;6.658;2022-08-03T08:23:03;15.18;;;4.20;;
58864;SDS011;45702;52.982;6.658;2022-08-03T08:25:30;13.40;;;4.35;;
58864;SDS011;45702;52.982;6.658;2022-08-03T08:27:56;20.92;;;4.22;;
58864;SDS011;45702;52.982;6.658;2022-08-03T08:30:26;19.98;;;4.78;;
58864;SDS011;45702;52.982;6.658;2022-08-03T08:32:52;20.75;;;4.10;;
58864;SDS011;45702;52.982;6.658;2022-08-03T08:35:18;18.48;;;4.28;;
58864;SDS011;45702;52.982;6.658;2022-08-03T08:37:45;20.27;;;5.05;;
58864;SDS011;45702;52.982;6.658;2022-08-03T08:40:11;18.27;;;4.80;;
58864;SDS011;45702;52.982;6.658;2022-08-03T08:42:38;23.98;;;5.38;;
58864;SDS011;45702;52.982;6.658;2022-08-03T08:45:04;27.98;;;5.40;;
58864;SDS011;45702;52.982;6.658;2022-08-03T08:47:32;20.38;;;4.60;;
58864;SDS011;45702;52.982;6.658;2022-08-03T08:49:59;23.67;;;4.68;;
58864;SDS011;45702;52.982;6.658;2022-08-03T08:52:26;21.38;;;4.82;;
58864;SDS011;45702;52.982;6.658;2022-08-03T08:54:57;17.02;;;4.07;;
58864;SDS011;45702;52.982;6.658;2022-08-03T08:57:34;19.38;;;5.35;;
58864;SDS011;45702;52.982;6.658;2022-08-03T09:00:02;22.05;;;5.47;;
58864;SDS011;45702;52.982;6.658;2022-08-03T09:02:29;17.02;;;4.63;;
58864;SDS011;45702;52.982;6.658;2022-08-03T09:04:56;23.08;;;4.80;;
58864;SDS011;45702;52.982;6.658;2022-08-03T09:07:22;23.23;;;4.75;;
58864;SDS011;45702;52.982;6.658;2022-08-03T09:09:48;20.80;;;4.40;;
58864;SDS011;45702;52.982;6.658;2022-08-03T09:12:14;23.52;;;4.95;;
58864;SDS011;45702;52.982;6.658;2022-08-03T09:14:40;21.45;;;4.45;;
58864;SDS011;45702;52.982;6.658;2022-08-03T09:17:07;22.15;;;4.88;;
58864;SDS011;45702;52.982;6.658;2022-08-03T09:19:34;18.27;;;4.70;;
58864;SDS011;45702;52.982;6.658;2022-08-03T09:22:11;16.40;;;4.55;;
58864;SDS011;45702;52.982;6.658;2022-08-03T09:24:38;22.75;;;5.20;;
58864;SDS011;45702;52.982;6.658;2022-08-03T09:29:31;19.58;;;5.25;;
58864;SDS011;45702;52.982;6.658;2022-08-03T09:32:02;19.10;;;4.65;;
58864;SDS011;45702;52.982;6.658;2022-08-03T09:34:28;18.88;;;4.70;;
58864;SDS011;45702;52.982;6.658;2022-08-03T09:36:55;21.60;;;4.80;;
58864;SDS011;45702;52.982;6.658;2022-08-03T09:39:26;18.65;;;4.85;;
58864;SDS011;45702;52.982;6.658;2022-08-03T09:42:12;18.70;;;4.25;;
58864;SDS011;45702;52.982;6.658;2022-08-03T09:44:39;22.45;;;5.72;;
58864;SDS011;45702;52.982;6.658;2022-08-03T09:47:06;16.27;;;4.60;;
58864;SDS011;45702;52.982;6.658;2022-08-03T09:49:34;17.48;;;4.63;;
58864;SDS011;45702;52.982;6.658;2022-08-03T09:52:00;18.70;;;4.57;;
58864;SDS011;45702;52.982;6.658;2022-08-03T09:54:31;14.20;;;4.40;;
58864;SDS011;45702;52.982;6.658;2022-08-03T09:56:58;19.90;;;4.55;;
58864;SDS011;45702;52.982;6.658;2022-08-03T09:59:25;20.27;;;4.75;;
58864;SDS011;45702;52.982;6.658;2022-08-03T10:01:51;19.85;;;4.72;;
58864;SDS011;45702;52.982;6.658;2022-08-03T10:04:17;26.42;;;4.82;;
58864;SDS011;45702;52.982;6.658;2022-08-03T10:06:44;15.00;;;4.07;;
58864;SDS011;45702;52.982;6.658;2022-08-03T10:09:15;21.20;;;5.10;;
58864;SDS011;45702;52.982;6.658;2022-08-03T10:11:42;18.73;;;4.70;;
58864;SDS011;45702;52.982;6.658;2022-08-03T10:14:09;22.43;;;4.33;;
58864;SDS011;45702;52.982;6.658;2022-08-03T10:16:42;21.50;;;4.15;;
58864;SDS011;45702;52.982;6.658;2022-08-03T10:19:08;16.20;;;3.85;;
58864;SDS011;45702;52.982;6.658;2022-08-03T10:21:35;16.58;;;4.45;;
58864;SDS011;45702;52.982;6.658;2022-08-03T10:24:03;21.55;;;4.90;;
58864;SDS011;45702;52.982;6.658;2022-08-03T10:26:30;16.33;;;3.80;;
58864;SDS011;45702;52.982;6.658;2022-08-03T10:28:56;19.42;;;4.60;;
58864;SDS011;45702;52.982;6.658;2022-08-03T10:31:24;18.67;;;4.78;;
58864;SDS011;45702;52.982;6.658;2022-08-03T10:33:51;22.50;;;4.03;;
58864;SDS011;45702;52.982;6.658;2022-08-03T10:36:18;21.80;;;3.80;;
58864;SDS011;45702;52.982;6.658;2022-08-03T10:38:46;14.45;;;3.25;;
58864;SDS011;45702;52.982;6.658;2022-08-03T10:41:21;17.33;;;3.60;;
58864;SDS011;45702;52.982;6.658;2022-08-03T10:43:52;15.07;;;3.33;;
58864;SDS011;45702;52.982;6.658;2022-08-03T10:46:20;17.42;;;3.60;;
58864;SDS011;45702;52.982;6.658;2022-08-03T10:48:47;18.25;;;3.50;;
58864;SDS011;45702;52.982;6.658;2022-08-03T10:51:14;18.90;;;3.70;;
58864;SDS011;45702;52.982;6.658;2022-08-03T10:53:41;22.27;;;4.57;;
58864;SDS011;45702;52.982;6.658;2022-08-03T10:59:11;19.63;;;4.10;;
58864;SDS011;45702;52.982;6.658;2022-08-03T11:01:51;21.77;;;4.03;;
58864;SDS011;45702;52.982;6.658;2022-08-03T11:04:18;19.25;;;3.63;;
58864;SDS011;45702;52.982;6.658;2022-08-03T11:06:44;18.73;;;3.90;;
58864;SDS011;45702;52.982;6.658;2022-08-03T11:11:41;15.57;;;3.63;;
58864;SDS011;45702;52.982;6.658;2022-08-03T11:14:08;15.02;;;3.40;;
58864;SDS011;45702;52.982;6.658;2022-08-03T11:19:05;18.67;;;3.22;;
58864;SDS011;45702;52.982;6.658;2022-08-03T11:27:22;19.88;;;3.58;;
58864;SDS011;45702;52.982;6.658;2022-08-03T11:30:04;21.67;;;4.05;;
58864;SDS011;45702;52.982;6.658;2022-08-03T11:35:16;14.63;;;3.33;;
58864;SDS011;45702;52.982;6.658;2022-08-03T11:42:59;22.75;;;3.90;;
58864;SDS011;45702;52.982;6.658;2022-08-03T11:45:25;23.65;;;3.75;;
58864;SDS011;45702;52.982;6.658;2022-08-03T11:47:52;23.27;;;4.05;;
58864;SDS011;45702;52.982;6.658;2022-08-03T11:50:19;23.38;;;3.53;;
58864;SDS011;45702;52.982;6.658;2022-08-03T11:52:45;18.33;;;3.80;;
58864;SDS011;45702;52.982;6.658;2022-08-03T11:55:13;24.42;;;4.18;;
58864;SDS011;45702;52.982;6.658;2022-08-03T11:57:39;21.45;;;4.13;;
58864;SDS011;45702;52.982;6.658;2022-08-03T12:00:22;24.15;;;3.85;;
58864;SDS011;45702;52.982;6.658;2022-08-03T12:03:10;25.80;;;3.80;;
58864;SDS011;45702;52.982;6.658;2022-08-03T12:05:43;25.87;;;4.10;;
58864;SDS011;45702;52.982;6.658;2022-08-03T12:08:09;23.33;;;3.78;;
58864;SDS011;45702;52.982;6.658;2022-08-03T12:10:36;23.25;;;4.07;;
58864;SDS011;45702;52.982;6.658;2022-08-03T12:13:03;29.00;;;3.60;;
58864;SDS011;45702;52.982;6.658;2022-08-03T12:15:35;21.38;;;4.30;;
58864;SDS011;45702;52.982;6.658;2022-08-03T12:18:03;18.73;;;3.60;;
58864;SDS011;45702;52.982;6.658;2022-08-03T12:20:30;22.40;;;3.30;;
58864;SDS011;45702;52.982;6.658;2022-08-03T12:23:04;27.15;;;3.80;;
58864;SDS011;45702;52.982;6.658;2022-08-03T12:25:30;16.85;;;3.28;;
58864;SDS011;45702;52.982;6.658;2022-08-03T12:28:07;19.13;;;3.17;;
58864;SDS011;45702;52.982;6.658;2022-08-03T12:30:34;18.40;;;2.72;;
58864;SDS011;45702;52.982;6.658;2022-08-03T12:35:49;18.77;;;2.80;;
58864;SDS011;45702;52.982;6.658;2022-08-03T12:38:19;17.58;;;2.90;;
58864;SDS011;45702;52.982;6.658;2022-08-03T12:40:56;24.63;;;4.15;;
58864;SDS011;45702;52.982;6.658;2022-08-03T12:43:22;20.10;;;3.88;;
58864;SDS011;45702;52.982;6.658;2022-08-03T12:45:48;14.75;;;3.20;;
58864;SDS011;45702;52.982;6.658;2022-08-03T12:48:14;18.02;;;3.53;;
58864;SDS011;45702;52.982;6.658;2022-08-03T12:50:40;20.50;;;3.80;;
58864;SDS011;45702;52.982;6.658;2022-08-03T12:53:09;14.63;;;2.97;;
58864;SDS011;45702;52.982;6.658;2022-08-03T12:55:36;21.45;;;2.85;;
58864;SDS011;45702;52.982;6.658;2022-08-03T12:58:03;16.13;;;3.33;;
58864;SDS011;45702;52.982;6.658;2022-08-03T13:00:29;15.50;;;3.25;;
58864;SDS011;45702;52.982;6.658;2022-08-03T13:05:25;17.48;;;2.50;;
58864;SDS011;45702;52.982;6.658;2022-08-03T13:07:51;17.48;;;2.50;;
58864;SDS011;45702;52.982;6.658;2022-08-03T13:10:30;13.70;;;2.22;;
58864;SDS011;45702;52.982;6.658;2022-08-03T13:12:57;12.88;;;2.40;;
58864;SDS011;45702;52.982;6.658;2022-08-03T13:15:24;14.00;;;2.53;;
58864;SDS011;45702;52.982;6.658;2022-08-03T13:17:52;16.35;;;2.55;;
58864;SDS011;45702;52.982;6.658;2022-08-03T13:20:19;19.20;;;2.40;;
58864;SDS011;45702;52.982;6.658;2022-08-03T13:22:45;13.98;;;2.33;;
58864;SDS011;45702;52.982;6.658;2022-08-03T13:25:12;13.38;;;2.25;;
58864;SDS011;45702;52.982;6.658;2022-08-03T13:27:38;10.40;;;2.05;;
58864;SDS011;45702;52.982;6.658;2022-08-03T13:30:04;8.93;;;2.08;;
58864;SDS011;45702;52.982;6.658;2022-08-03T13:32:31;9.23;;;2.45;;
58864;SDS011;45702;52.982;6.658;2022-08-03T13:34:57;12.90;;;2.28;;
58864;SDS011;45702;52.982;6.658;2022-08-03T13:37:24;16.40;;;2.28;;
58864;SDS011;45702;52.982;6.658;2022-08-03T13:39:50;17.13;;;2.55;;
58864;SDS011;45702;52.982;6.658;2022-08-03T13:42:16;14.68;;;3.05;;
58864;SDS011;45702;52.982;6.658;2022-08-03T13:44:42;15.95;;;2.42;;
58864;SDS011;45702;52.982;6.658;2022-08-03T13:47:08;10.32;;;2.70;;
58864;SDS011;45702;52.982;6.658;2022-08-03T13:49:34;14.38;;;2.00;;
58864;SDS011;45702;52.982;6.658;2022-08-03T13:52:00;16.27;;;2.45;;
58864;SDS011;45702;52.982;6.658;2022-08-03T13:54:26;17.42;;;2.30;;
58864;SDS011;45702;52.982;6.658;2022-08-03T13:56:52;21.48;;;2.55;;
58864;SDS011;45702;52.982;6.658;2022-08-03T13:59:22;14.68;;;2.55;;
58864;SDS011;45702;52.982;6.658;2022-08-03T14:01:49;17.77;;;2.85;;
58864;SDS011;45702;52.982;6.658;2022-08-03T14:04:15;14.05;;;2.83;;
58864;SDS011;45702;52.982;6.658;2022-08-03T14:06:41;15.30;;;2.90;;
58864;SDS011;45702;52.982;6.658;2022-08-03T14:11:35;17.17;;;2.78;;
58864;SDS011;45702;52.982;6.658;2022-08-03T14:14:01;15.25;;;2.65;;
58864;SDS011;45702;52.982;6.658;2022-08-03T14:16:27;17.65;;;2.85;;
58864;SDS011;45702;52.982;6.658;2022-08-03T14:18:53;12.73;;;2.67;;
58864;SDS011;45702;52.982;6.658;2022-08-03T14:21:19;18.13;;;3.08;;
58864;SDS011;45702;52.982;6.658;2022-08-03T14:23:45;18.23;;;2.72;;
58864;SDS011;45702;52.982;6.658;2022-08-03T14:26:11;12.30;;;2.60;;
58864;SDS011;45702;52.982;6.658;2022-08-03T14:28:45;20.65;;;3.22;;
58864;SDS011;45702;52.982;6.658;2022-08-03T14:31:11;13.38;;;2.75;;
58864;SDS011;45702;52.982;6.658;2022-08-03T14:33:37;12.43;;;2.40;;
58864;SDS011;45702;52.982;6.658;2022-08-03T14:36:03;13.82;;;2.90;;
58864;SDS011;45702;52.982;6.658;2022-08-03T14:38:30;14.55;;;2.92;;
58864;SDS011;45702;52.982;6.658;2022-08-03T14:40:57;21.98;;;2.90;;
58864;SDS011;45702;52.982;6.658;2022-08-03T14:43:23;12.70;;;2.85;;
58864;SDS011;45702;52.982;6.658;2022-08-03T14:45:50;12.55;;;2.50;;
58864;SDS011;45702;52.982;6.658;2022-08-03T14:48:18;15.30;;;3.05;;
58864;SDS011;45702;52.982;6.658;2022-08-03T14:50:44;12.20;;;2.87;;
58864;SDS011;45702;52.982;6.658;2022-08-03T14:53:10;15.90;;;3.13;;
58864;SDS011;45702;52.982;6.658;2022-08-03T14:55:37;16.23;;;2.77;;
58864;SDS011;45702;52.982;6.658;2022-08-03T14:58:03;16.80;;;2.70;;
58864;SDS011;45702;52.982;6.658;2022-08-03T15:00:34;15.98;;;2.78;;
58864;SDS011;45702;52.982;6.658;2022-08-03T15:03:03;17.27;;;3.35;;
58864;SDS011;45702;52.982;6.658;2022-08-03T15:05:29;11.57;;;2.60;;
58864;SDS011;45702;52.982;6.658;2022-08-03T15:07:55;15.45;;;3.20;;
58864;SDS011;45702;52.982;6.658;2022-08-03T15:10:21;13.32;;;2.97;;
58864;SDS011;45702;52.982;6.658;2022-08-03T15:12:47;16.20;;;3.30;;
58864;SDS011;45702;52.982;6.658;2022-08-03T15:15:13;12.35;;;3.42;;
58864;SDS011;45702;52.982;6.658;2022-08-03T15:17:40;13.80;;;2.97;;
58864;SDS011;45702;52.982;6.658;2022-08-03T15:20:06;15.57;;;3.10;;
58864;SDS011;45702;52.982;6.658;2022-08-03T15:22:33;10.20;;;3.53;;
58864;SDS011;45702;52.982;6.658;2022-08-03T15:24:59;12.27;;;2.90;;
58864;SDS011;45702;52.982;6.658;2022-08-03T15:27:25;14.85;;;3.58;;
58864;SDS011;45702;52.982;6.658;2022-08-03T15:29:51;13.95;;;3.38;;